Time;durP1;ratioP1;P1;durP2;ratioP2;P2;SDS_P1;SDS_P2;PMS_P1;PMS_P2;Temp;Humidity;BMP_temperature;BMP_pressure;BME280_temperature;BME280_humidity;BME280_pressure;Samples;Min_cycle;Max_cycle;Signal;HPM_P1;HPM_P2
2022/04/19 00:00:07;;;;;;;1.40;1.20;;;-0.60;99.90;;;;;;5154952;27;20368;-63
2022/04/19 00:02:48;;;;;;;1.23;1.23;;;-0.70;99.90;;;;;;5160686;27;20570;-62
2022/04/19 00:05:27;;;;;;;1.58;1.48;;;-0.80;99.90;;;;;;5148164;27;20548;-62
2022/04/19 00:08:06;;;;;;;1.58;1.42;;;-0.70;99.90;;;;;;5110120;27;20618;-61
2022/04/19 00:10:45;;;;;;;1.58;1.48;;;-0.70;99.90;;;;;;5156267;27;20596;-62
2022/04/19 00:13:24;;;;;;;1.17;1.15;;;-0.70;99.90;;;;;;5145186;27;20627;-63
2022/04/19 00:16:03;;;;;;;1.25;1.20;;;-0.90;99.90;;;;;;5160434;27;20536;-61
2022/04/19 00:18:42;;;;;;;1.40;1.30;;;-1.00;99.90;;;;;;5149122;27;20990;-61
2022/04/19 00:21:21;;;;;;;2.58;1.45;;;-1.10;99.90;;;;;;5115117;27;20600;-62
2022/04/19 00:23:59;;;;;;;1.67;1.58;;;-1.20;99.90;;;;;;5115478;27;20546;-63
2022/04/19 00:26:37;;;;;;;2.05;1.90;;;-1.30;99.90;;;;;;5160658;27;20541;-61
2022/04/19 00:29:15;;;;;;;1.90;1.80;;;-1.30;99.90;;;;;;5090803;27;21107;-62
2022/04/19 00:31:53;;;;;;;2.47;2.00;;;-1.30;99.90;;;;;;5155641;27;21005;-63
2022/04/19 00:34:32;;;;;;;3.03;2.00;;;-1.40;99.90;;;;;;5147407;27;20823;-61
2022/04/19 00:37:10;;;;;;;1.85;1.73;;;-1.30;99.90;;;;;;5158222;27;20551;-62
2022/04/19 00:39:48;;;;;;;2.35;2.15;;;-1.30;99.90;;;;;;5089523;27;20633;-61
2022/04/19 00:42:30;;;;;;;2.30;2.10;;;-1.40;99.90;;;;;;5142629;27;20563;-62
2022/04/19 00:45:09;;;;;;;2.67;2.47;;;-1.40;99.90;;;;;;5142401;27;20562;-62
2022/04/19 00:47:48;;;;;;;3.28;2.25;;;-1.50;99.90;;;;;;5147800;27;20653;-61
2022/04/19 00:50:26;;;;;;;1.90;1.80;;;-1.60;99.90;;;;;;5111898;27;20621;-62
2022/04/19 00:53:06;;;;;;;1.75;1.50;;;-1.60;99.90;;;;;;5148359;27;21715;-63
2022/04/19 00:55:45;;;;;;;1.60;1.50;;;-1.50;99.90;;;;;;5141815;27;20611;-62
2022/04/19 00:58:26;;;;;;;1.58;1.48;;;-1.30;99.90;;;;;;5140462;27;20873;-62
2022/04/19 01:01:04;;;;;;;1.60;1.50;;;-1.10;99.90;;;;;;5099530;27;21053;-62
2022/04/19 01:03:43;;;;;;;1.98;1.88;;;-1.00;99.90;;;;;;5127968;27;20579;-62
2022/04/19 01:06:26;;;;;;;1.60;1.50;;;-1.00;99.90;;;;;;5147630;27;20558;-61
2022/04/19 01:09:06;;;;;;;1.65;1.55;;;-1.10;99.90;;;;;;5145658;27;20650;-63
2022/04/19 01:14:41;;;;;;;1.67;1.58;;;-1.30;99.90;;;;;;5153693;27;20613;-62
2022/04/19 01:17:22;;;;;;;1.80;1.63;;;-1.50;99.90;;;;;;5117870;27;20701;-62
2022/04/19 01:20:02;;;;;;;1.40;1.40;;;-1.60;99.90;;;;;;5157536;27;21483;-61
2022/04/19 01:22:42;;;;;;;1.42;1.33;;;-1.70;99.90;;;;;;5156140;27;20547;-60
2022/04/19 01:25:22;;;;;;;1.67;1.58;;;-1.80;99.90;;;;;;5115575;27;20621;-63
2022/04/19 01:28:01;;;;;;;1.73;1.63;;;-1.80;99.90;;;;;;5157523;27;20614;-61
2022/04/19 01:30:43;;;;;;;1.80;1.70;;;-1.70;99.90;;;;;;5151039;27;20607;-62
2022/04/19 01:33:24;;;;;;;3.10;1.85;;;-1.80;99.90;;;;;;5115699;27;20609;-61
2022/04/19 01:36:04;;;;;;;1.85;1.75;;;-1.90;99.90;;;;;;5178429;27;20957;-62
2022/04/19 01:38:44;;;;;;;2.08;1.95;;;-1.80;99.90;;;;;;5144255;27;20661;-63
2022/04/19 01:41:25;;;;;;;2.38;1.80;;;-1.70;99.90;;;;;;5113737;27;20575;-62
2022/04/19 01:44:08;;;;;;;2.30;1.95;;;-1.60;99.90;;;;;;5115375;27;20557;-61
2022/04/19 01:46:48;;;;;;;2.20;2.00;;;-1.60;99.90;;;;;;5116043;27;20690;-63
2022/04/19 01:49:26;;;;;;;1.50;1.40;;;-1.50;99.90;;;;;;5097033;27;20712;-63
2022/04/19 01:52:08;;;;;;;2.55;1.80;;;-1.50;99.90;;;;;;5139191;27;20532;-63
2022/04/19 01:54:47;;;;;;;1.70;1.60;;;-1.60;99.90;;;;;;5115997;27;20537;-62
2022/04/19 01:57:34;;;;;;;1.80;1.70;;;-1.80;99.90;;;;;;5115538;27;20660;-62
2022/04/19 02:00:15;;;;;;;1.60;1.50;;;-1.90;99.90;;;;;;5114506;27;21015;-61
2022/04/19 02:02:55;;;;;;;1.30;1.20;;;-2.10;99.90;;;;;;5139976;27;20566;-61
2022/04/19 02:05:33;;;;;;;2.08;1.60;;;-2.10;99.90;;;;;;5157521;27;20538;-62
2022/04/19 02:08:14;;;;;;;1.42;1.33;;;-2.20;99.90;;;;;;5152671;27;20574;-62
2022/04/19 02:10:53;;;;;;;1.33;1.23;;;-2.30;99.90;;;;;;5159771;27;20617;-63
2022/04/19 02:13:33;;;;;;;1.60;1.50;;;-2.30;99.90;;;;;;5150820;27;20614;-62
2022/04/19 02:16:14;;;;;;;3.80;1.58;;;-2.30;99.90;;;;;;5112342;27;20613;-63
2022/04/19 02:18:52;;;;;;;1.63;1.52;;;-2.40;99.90;;;;;;5137425;27;20565;-63
2022/04/19 02:21:32;;;;;;;1.88;1.77;;;-2.40;99.90;;;;;;5152757;27;21033;-62
2022/04/19 02:24:12;;;;;;;1.60;1.48;;;-2.30;99.90;;;;;;5115621;27;21034;-61
2022/04/19 02:26:53;;;;;;;2.95;1.90;;;-2.10;99.90;;;;;;5148733;27;20558;-61
2022/04/19 02:29:32;;;;;;;1.88;1.77;;;-2.00;99.90;;;;;;5097379;27;20547;-62
2022/04/19 02:32:10;;;;;;;1.42;1.35;;;-2.00;99.90;;;;;;5145990;27;20611;-61
2022/04/19 02:34:48;;;;;;;1.67;1.58;;;-2.10;99.90;;;;;;5114399;27;21054;-60
2022/04/19 02:37:28;;;;;;;1.65;1.55;;;-2.20;99.90;;;;;;5115006;27;20631;-61
2022/04/19 02:40:09;;;;;;;2.08;1.27;;;-2.20;99.90;;;;;;5157232;27;20680;-62
2022/04/19 02:42:48;;;;;;;1.80;1.70;;;-2.30;99.90;;;;;;5157260;27;20568;-61
2022/04/19 02:45:27;;;;;;;1.60;1.50;;;-2.40;99.90;;;;;;5160806;27;20576;-61
2022/04/19 02:48:08;;;;;;;1.60;1.50;;;-2.50;99.90;;;;;;5157824;27;21067;-62
2022/04/19 02:50:54;;;;;;;1.60;1.50;;;-2.50;99.90;;;;;;5138584;27;20564;-61
2022/04/19 02:53:32;;;;;;;1.60;1.50;;;-2.50;99.90;;;;;;5153434;27;20993;-61
2022/04/19 02:56:11;;;;;;;1.58;1.48;;;-2.60;99.90;;;;;;5112376;27;20601;-62
2022/04/19 02:58:50;;;;;;;1.80;1.70;;;-2.60;99.90;;;;;;5102651;27;20551;-62
2022/04/19 03:01:29;;;;;;;1.60;1.50;;;-2.60;99.90;;;;;;5155397;27;20609;-63
2022/04/19 03:04:08;;;;;;;1.55;1.45;;;-2.60;99.90;;;;;;5157426;27;20529;-61
2022/04/19 03:06:46;;;;;;;1.45;1.35;;;-2.60;99.90;;;;;;5149121;27;20553;-61
2022/04/19 03:09:24;;;;;;;1.83;1.73;;;-2.50;99.90;;;;;;5096825;27;20633;-62
2022/04/19 03:12:05;;;;;;;1.88;1.70;;;-2.40;99.90;;;;;;5110853;27;20554;-61
2022/04/19 03:14:44;;;;;;;1.65;1.55;;;-2.50;99.90;;;;;;5119972;27;20570;-62
2022/04/19 03:17:22;;;;;;;1.60;1.50;;;-2.40;99.90;;;;;;5148084;27;20549;-61
2022/04/19 03:20:00;;;;;;;1.30;1.20;;;-2.50;99.90;;;;;;5155755;27;20547;-62
2022/04/19 03:28:32;;;;;;;1.50;1.40;;;-2.60;99.90;;;;;;5138916;27;20611;-62
2022/04/19 03:31:10;;;;;;;1.40;1.30;;;-2.50;99.90;;;;;;5151432;27;20939;-62
2022/04/19 03:33:52;;;;;;;1.80;1.70;;;-2.60;99.90;;;;;;5115857;27;21013;-61
2022/04/19 03:36:31;;;;;;;1.50;1.38;;;-2.70;99.90;;;;;;5115921;27;21039;-61
2022/04/19 03:39:11;;;;;;;1.52;1.45;;;-2.70;99.90;;;;;;5140913;27;20586;-61
2022/04/19 03:41:49;;;;;;;1.80;1.70;;;-2.70;99.90;;;;;;5116200;27;20632;-61
2022/04/19 03:44:31;;;;;;;1.70;1.60;;;-2.70;99.90;;;;;;5115759;27;20613;-62
2022/04/19 03:47:09;;;;;;;3.25;1.50;;;-2.70;99.90;;;;;;5157845;27;20941;-62
2022/04/19 03:49:49;;;;;;;2.70;1.77;;;-2.60;99.90;;;;;;5138500;27;20551;-59
2022/04/19 03:52:27;;;;;;;1.75;1.60;;;-2.60;99.90;;;;;;5116132;27;20608;-62
2022/04/19 03:55:06;;;;;;;3.38;2.65;;;-2.50;99.90;;;;;;5157913;27;20555;-61
2022/04/19 03:57:47;;;;;;;2.40;2.20;;;-2.50;99.90;;;;;;5115942;27;20875;-60
2022/04/19 04:00:25;;;;;;;1.90;1.80;;;-2.40;99.90;;;;;;5131409;22;20546;-60
2022/04/19 04:03:06;;;;;;;1.90;1.75;;;-2.30;99.90;;;;;;5154869;27;21082;-59
2022/04/19 04:05:44;;;;;;;1.88;1.77;;;-2.10;99.90;;;;;;5115507;27;20572;-59
2022/04/19 04:08:23;;;;;;;2.53;1.60;;;-2.10;99.90;;;;;;5135766;27;21077;-60
2022/04/19 04:11:04;;;;;;;1.60;1.50;;;-2.00;99.90;;;;;;5150399;27;20551;-60
2022/04/19 04:13:47;;;;;;;1.85;1.75;;;-2.00;99.90;;;;;;5159761;27;20827;-60
2022/04/19 04:16:25;;;;;;;2.08;1.85;;;-2.00;99.90;;;;;;5158089;27;20563;-60
2022/04/19 04:19:04;;;;;;;1.80;1.70;;;-2.00;99.90;;;;;;5159038;27;20554;-60
2022/04/19 04:21:42;;;;;;;2.10;1.90;;;-2.00;99.90;;;;;;5146513;27;20988;-60
2022/04/19 04:24:20;;;;;;;2.08;1.98;;;-2.00;99.90;;;;;;5145853;27;20542;-60
2022/04/19 04:27:00;;;;;;;1.58;1.48;;;-1.90;99.90;;;;;;5161087;27;21081;-60
2022/04/19 04:29:41;;;;;;;1.85;1.75;;;-1.80;99.90;;;;;;5159173;27;20659;-60
2022/04/19 04:32:19;;;;;;;2.00;1.90;;;-1.70;99.90;;;;;;5142200;27;20547;-59
2022/04/19 04:35:00;;;;;;;3.00;1.60;;;-1.70;99.90;;;;;;5160293;27;20867;-59
2022/04/19 04:37:39;;;;;;;1.80;1.70;;;-1.70;99.90;;;;;;5161172;27;20537;-60
2022/04/19 04:40:17;;;;;;;2.65;1.50;;;-1.60;99.90;;;;;;5159565;27;20547;-60
2022/04/19 04:43:12;;;;;;;2.65;1.90;;;-1.50;99.90;;;;;;5160946;27;20553;-59
2022/04/19 04:51:40;;;;;;;1.80;1.70;;;-1.20;99.90;;;;;;5147664;27;20539;-59
2022/04/19 04:54:18;;;;;;;1.67;1.58;;;-1.10;99.90;;;;;;5152071;27;20593;-59
2022/04/19 04:56:58;;;;;;;2.60;1.85;;;-0.90;99.90;;;;;;5160557;27;20563;-59
2022/04/19 04:59:37;;;;;;;2.00;1.80;;;-0.80;99.90;;;;;;5159366;27;20659;-59
2022/04/19 05:02:16;;;;;;;1.95;1.75;;;-0.70;99.90;;;;;;5144600;27;20547;-59
2022/04/19 05:04:56;;;;;;;2.00;1.83;;;-0.60;99.90;;;;;;5160286;27;20566;-59
2022/04/19 05:07:37;;;;;;;1.67;1.58;;;-0.50;99.90;;;;;;5160774;27;20766;-59
2022/04/19 05:10:15;;;;;;;1.55;1.45;;;-0.50;99.90;;;;;;5158708;27;20549;-59
2022/04/19 05:12:54;;;;;;;1.92;1.77;;;-0.40;99.90;;;;;;5115862;27;20972;-59
2022/04/19 05:15:37;;;;;;;2.30;2.20;;;-0.40;99.90;;;;;;5159706;27;20517;-59
2022/04/19 05:18:17;;;;;;;2.00;1.90;;;-0.30;99.90;;;;;;5137912;27;21105;-59
2022/04/19 05:20:58;;;;;;;1.70;1.60;;;-0.20;99.90;;;;;;5140939;27;20686;-59
2022/04/19 05:23:38;;;;;;;1.98;1.85;;;-0.10;99.90;;;;;;5139263;27;21090;-59
2022/04/19 05:26:19;;;;;;;1.95;1.85;;;0.00;99.90;;;;;;5153885;27;20313;-59
2022/04/19 05:28:59;;;;;;;2.17;2.00;;;0.10;99.90;;;;;;5158444;27;20841;-59
2022/04/19 05:31:37;;;;;;;2.42;1.70;;;0.40;99.90;;;;;;5148038;27;20547;-59
2022/04/19 05:34:15;;;;;;;2.17;2.08;;;0.60;99.90;;;;;;5159690;27;20533;-59
2022/04/19 05:36:54;;;;;;;2.00;1.88;;;0.80;99.90;;;;;;5159567;27;21074;-58
2022/04/19 05:39:32;;;;;;;1.90;1.80;;;1.20;99.90;;;;;;5114093;27;20594;-58
2022/04/19 05:42:12;;;;;;;1.80;1.70;;;1.50;99.90;;;;;;5118452;27;20607;-59
2022/04/19 05:44:50;;;;;;;2.40;2.20;;;1.90;99.90;;;;;;5140076;27;20983;-58
2022/04/19 05:47:29;;;;;;;4.88;4.35;;;2.10;99.90;;;;;;5139067;27;20657;-58
2022/04/19 05:50:09;;;;;;;2.58;2.20;;;2.40;99.90;;;;;;5089590;27;21005;-58
2022/04/19 05:52:48;;;;;;;2.08;1.90;;;2.40;99.90;;;;;;5144875;27;20630;-58
2022/04/19 05:55:28;;;;;;;1.80;1.70;;;2.50;99.90;;;;;;5146043;27;20546;-58
2022/04/19 05:58:06;;;;;;;1.70;1.60;;;2.60;99.90;;;;;;5107934;27;20570;-58
2022/04/19 06:00:46;;;;;;;1.75;1.65;;;2.80;99.90;;;;;;5153393;27;20610;-58
2022/04/19 06:06:20;;;;;;;1.80;1.70;;;3.20;99.90;;;;;;5131705;27;20656;-58
2022/04/19 06:09:01;;;;;;;2.20;2.10;;;3.50;99.90;;;;;;5112716;27;20534;-58
2022/04/19 06:11:39;;;;;;;2.22;1.98;;;3.60;99.90;;;;;;5144905;27;20634;-58
2022/04/19 06:14:19;;;;;;;2.42;2.33;;;3.70;99.90;;;;;;5147911;27;20628;-58
2022/04/19 06:16:57;;;;;;;2.72;2.53;;;3.80;99.90;;;;;;5140178;27;20542;-58
2022/04/19 06:19:36;;;;;;;2.20;2.10;;;3.80;99.90;;;;;;5143759;27;20535;-58
2022/04/19 06:22:14;;;;;;;3.35;2.33;;;4.00;99.90;;;;;;5141648;27;20558;-58
2022/04/19 06:25:04;;;;;;;2.00;1.90;;;4.10;99.90;;;;;;5156061;27;20618;-58
2022/04/19 06:27:43;;;;;;;2.00;1.90;;;4.30;99.90;;;;;;5152760;27;20691;-58
2022/04/19 06:30:24;;;;;;;2.20;2.10;;;4.50;99.90;;;;;;5145302;27;21087;-59
2022/04/19 06:33:03;;;;;;;2.40;2.17;;;4.60;99.90;;;;;;5158651;27;20609;-58
2022/04/19 06:35:42;;;;;;;2.80;2.60;;;4.80;99.90;;;;;;5159896;27;20987;-58
2022/04/19 06:38:21;;;;;;;2.72;2.30;;;4.90;99.90;;;;;;5160926;27;20542;-58
2022/04/19 06:40:59;;;;;;;2.40;2.20;;;5.10;99.90;;;;;;5152643;27;21032;-58
2022/04/19 06:43:38;;;;;;;2.40;2.25;;;5.30;99.90;;;;;;5158064;27;20596;-59
2022/04/19 06:46:30;;;;;;;3.20;2.15;;;5.60;99.90;;;;;;5139633;27;21041;-58
2022/04/19 06:49:15;;;;;;;3.33;2.40;;;6.00;99.90;;;;;;5148892;27;20566;-58
2022/04/19 06:51:54;;;;;;;2.65;2.45;;;6.50;99.90;;;;;;5136782;27;20566;-58
2022/04/19 06:54:33;;;;;;;3.15;2.03;;;7.20;99.90;;;;;;5114132;27;20597;-58
2022/04/19 06:57:12;;;;;;;2.85;2.65;;;7.60;99.90;;;;;;5156664;27;20549;-58
2022/04/19 06:59:51;;;;;;;2.95;2.60;;;7.80;99.90;;;;;;5144998;27;20622;-58
2022/04/19 07:02:31;;;;;;;3.35;3.05;;;7.90;99.90;;;;;;5140500;27;21012;-58
2022/04/19 07:05:10;;;;;;;2.65;2.53;;;7.70;99.90;;;;;;5159310;27;20559;-58
2022/04/19 07:07:49;;;;;;;3.53;2.83;;;7.30;99.90;;;;;;5158020;27;20537;-58
2022/04/19 07:10:27;;;;;;;3.30;3.00;;;7.00;99.90;;;;;;5156190;27;20593;-58
2022/04/19 07:13:26;;;;;;;3.92;2.50;;;6.90;99.90;;;;;;5155624;27;20583;-58
2022/04/19 07:16:06;;;;;;;3.40;3.13;;;7.00;99.90;;;;;;5152320;27;20555;-58
2022/04/19 07:18:46;;;;;;;3.88;3.00;;;7.20;99.90;;;;;;5137231;27;20811;-58
2022/04/19 07:27:15;;;;;;;4.38;3.60;;;7.80;99.90;;;;;;5144767;27;20562;-58
2022/04/19 07:29:54;;;;;;;3.42;3.10;;;8.10;99.90;;;;;;5142461;27;21099;-58
2022/04/19 07:32:32;;;;;;;4.25;3.95;;;8.40;99.90;;;;;;5137597;27;20571;-59
2022/04/19 07:35:18;;;;;;;4.13;2.90;;;8.40;99.90;;;;;;5160086;27;20534;-59
2022/04/19 07:37:56;;;;;;;3.45;3.17;;;8.30;99.90;;;;;;5100375;27;20602;-59
2022/04/19 07:40:45;;;;;;;3.50;3.25;;;8.20;99.90;;;;;;5097374;27;20547;-59
2022/04/19 07:43:24;;;;;;;3.20;2.90;;;8.40;99.90;;;;;;5154045;27;20554;-60
2022/04/19 07:46:04;;;;;;;3.60;3.20;;;8.50;99.90;;;;;;5135148;27;20600;-59
2022/04/19 07:48:44;;;;;;;3.20;2.90;;;8.70;99.90;;;;;;5137044;27;21127;-59
2022/04/19 07:51:22;;;;;;;3.30;3.00;;;8.90;99.90;;;;;;5138164;27;20563;-59
2022/04/19 07:54:00;;;;;;;3.08;2.88;;;9.10;99.90;;;;;;5152473;27;20592;-59
2022/04/19 07:56:38;;;;;;;2.97;2.78;;;9.20;99.90;;;;;;5159236;27;20545;-59
2022/04/19 07:59:16;;;;;;;3.00;2.80;;;9.50;99.90;;;;;;5149950;27;20552;-60
2022/04/19 08:01:55;;;;;;;3.25;2.97;;;9.90;99.90;;;;;;5137312;27;20961;-59
2022/04/19 08:04:33;;;;;;;2.75;2.40;;;10.50;99.90;;;;;;5160852;27;20545;-60
2022/04/19 08:07:11;;;;;;;3.35;2.42;;;11.10;99.90;;;;;;5115459;27;20820;-60
2022/04/19 08:09:51;;;;;;;3.05;2.85;;;11.20;99.90;;;;;;5157527;27;21129;-59
2022/04/19 08:12:29;;;;;;;3.42;2.65;;;11.30;99.90;;;;;;5098411;27;20626;-60
2022/04/19 08:15:09;;;;;;;3.33;2.40;;;11.50;99.90;;;;;;5159479;27;20616;-60
2022/04/19 08:17:49;;;;;;;4.22;2.55;;;11.40;99.90;;;;;;5155843;27;20549;-59
2022/04/19 08:20:27;;;;;;;4.03;2.83;;;11.20;99.90;;;;;;5136267;27;21174;-60
2022/04/19 08:23:07;;;;;;;2.70;2.50;;;10.50;99.90;;;;;;5161855;27;20783;-59
2022/04/19 08:25:45;;;;;;;2.67;2.47;;;10.00;99.90;;;;;;5161188;27;21285;-60
2022/04/19 08:28:59;;;;;;;2.78;2.58;;;9.70;99.90;;;;;;5160909;27;21065;-60
2022/04/19 08:32:01;;;;;;;3.17;2.97;;;9.70;99.90;;;;;;5145291;27;20547;-60
2022/04/19 08:34:39;;;;;;;2.95;2.75;;;9.80;99.90;;;;;;5160536;27;20654;-60
2022/04/19 08:37:32;;;;;;;3.20;2.50;;;10.00;99.90;;;;;;5160787;27;20547;-60
2022/04/19 08:40:12;;;;;;;2.75;2.55;;;10.20;99.90;;;;;;5159189;27;20541;-60
2022/04/19 08:42:51;;;;;;;2.90;2.70;;;10.40;99.90;;;;;;5160423;27;20551;-60
2022/04/19 08:45:30;;;;;;;2.55;2.35;;;10.60;99.90;;;;;;5160641;27;20686;-59
2022/04/19 08:48:11;;;;;;;2.95;2.75;;;10.60;99.90;;;;;;5154601;27;20536;-59
2022/04/19 08:50:51;;;;;;;2.90;2.70;;;10.70;99.90;;;;;;5154229;27;21055;-60
2022/04/19 08:59:29;;;;;;;3.50;3.08;;;11.80;99.90;;;;;;5151793;27;20542;-60
2022/04/19 09:02:20;;;;;;;2.70;2.47;;;12.20;99.90;;;;;;5137104;27;20661;-60
2022/04/19 09:07:50;;;;;;;2.40;2.20;;;12.40;99.90;;;;;;5090075;27;20607;-60
2022/04/19 09:10:31;;;;;;;3.72;2.10;;;13.00;99.90;;;;;;5149726;27;21050;-60
2022/04/19 09:13:11;;;;;;;3.17;2.70;;;13.40;99.90;;;;;;5116227;27;20706;-59
2022/04/19 09:16:06;;;;;;;2.17;2.08;;;13.70;99.90;;;;;;5160806;27;20362;-61
2022/04/19 09:18:45;;;;;;;2.80;2.60;;;13.90;99.90;;;;;;5140124;27;20631;-60
2022/04/19 09:21:37;;;;;;;3.05;2.40;;;14.00;99.90;;;;;;5145911;27;20670;-60
2022/04/19 09:24:19;;;;;;;2.53;2.33;;;14.50;99.90;;;;;;5160830;27;20525;-60
2022/04/19 09:26:58;;;;;;;1.95;1.85;;;15.50;99.90;;;;;;5160894;27;20670;-61
2022/04/19 09:29:37;;;;;;;2.55;2.35;;;16.20;99.90;;;;;;5159838;27;20629;-61
2022/04/19 09:32:15;;;;;;;2.97;1.80;;;16.40;99.90;;;;;;5143210;27;20550;-60
2022/04/19 09:34:53;;;;;;;2.83;2.63;;;16.40;99.90;;;;;;5160796;27;20529;-60
2022/04/19 09:37:32;;;;;;;2.83;2.63;;;16.10;99.90;;;;;;5161387;27;20575;-60
2022/04/19 09:40:11;;;;;;;2.50;2.30;;;15.70;99.90;;;;;;5159941;27;20545;-61
2022/04/19 09:42:54;;;;;;;2.78;2.58;;;15.30;99.90;;;;;;5160715;27;20550;-60
2022/04/19 09:45:46;;;;;;;1.80;1.70;;;15.20;99.90;;;;;;5136679;27;20556;-60
2022/04/19 09:48:27;;;;;;;1.90;1.80;;;15.10;99.90;;;;;;5148630;27;20923;-60
2022/04/19 09:51:09;;;;;;;1.90;1.80;;;15.20;99.90;;;;;;5151737;27;20794;-60
2022/04/19 09:53:49;;;;;;;1.60;1.50;;;15.40;99.90;;;;;;5160899;27;21061;-60
2022/04/19 09:56:35;;;;;;;1.50;1.40;;;15.50;97.10;;;;;;5161076;27;20545;-61
2022/04/19 09:59:17;;;;;;;1.35;1.25;;;15.30;96.60;;;;;;5160254;27;20917;-60
2022/04/19 10:10:45;;;;;;;2.55;1.30;;;13.30;99.90;;;;;;5155303;27;20554;-60
2022/04/19 10:13:24;;;;;;;2.80;1.08;;;13.20;99.90;;;;;;5160778;27;20530;-59
2022/04/19 10:16:04;;;;;;;1.48;1.38;;;13.10;99.90;;;;;;5160915;27;20545;-60
2022/04/19 10:18:44;;;;;;;1.10;1.10;;;13.30;99.90;;;;;;5140498;27;20990;-60
2022/04/19 10:21:27;;;;;;;0.90;0.90;;;13.10;99.40;;;;;;5149320;27;20570;-59
2022/04/19 10:24:13;;;;;;;1.25;1.15;;;12.90;96.10;;;;;;5160591;27;20558;-60
2022/04/19 10:26:52;;;;;;;2.00;1.23;;;12.80;99.00;;;;;;5161167;27;20681;-59
2022/04/19 10:29:33;;;;;;;1.42;1.33;;;13.10;99.90;;;;;;5159580;27;20598;-60
2022/04/19 10:32:12;;;;;;;2.58;1.25;;;13.50;97.30;;;;;;5123178;27;20907;-60
2022/04/19 10:35:00;;;;;;;1.05;1.05;;;13.90;98.50;;;;;;5160808;27;20654;-60
2022/04/19 10:37:41;;;;;;;1.92;1.25;;;14.50;96.60;;;;;;5160959;27;20529;-60
2022/04/19 10:40:23;;;;;;;1.95;1.30;;;14.40;97.40;;;;;;5159171;27;20943;-59
2022/04/19 10:43:14;;;;;;;0.80;0.80;;;13.80;96.50;;;;;;5160668;27;20551;-60
2022/04/19 10:45:53;;;;;;;0.70;0.70;;;13.40;98.10;;;;;;5140224;27;20565;-60
2022/04/19 10:48:31;;;;;;;1.02;1.02;;;13.70;97.90;;;;;;5155385;27;20545;-60
2022/04/19 10:51:30;;;;;;;1.08;1.08;;;14.30;97.40;;;;;;5150844;27;20974;-60
2022/04/19 10:54:08;;;;;;;1.02;0.93;;;14.70;96.80;;;;;;5116403;27;20616;-60
2022/04/19 10:58:06;;;;;;;2.65;0.80;;;14.60;96.30;;;;;;5160880;27;20529;-59
2022/04/19 11:00:23;;;;;;;0.68;0.68;;;14.00;94.70;;;;;;5158604;27;20546;-60
2022/04/19 11:03:04;;;;;;;1.05;0.68;;;13.60;95.40;;;;;;5160870;27;21001;-60
2022/04/19 11:05:45;;;;;;;0.98;0.73;;;14.30;95.60;;;;;;5160882;27;20530;-60
2022/04/19 11:08:44;;;;;;;1.45;0.60;;;14.90;93.30;;;;;;5161757;27;20526;-60
2022/04/19 11:11:22;;;;;;;2.42;0.60;;;15.10;88.70;;;;;;5100620;27;20552;-60
2022/04/19 11:14:40;;;;;;;1.08;0.90;;;15.10;91.20;;;;;;5160669;27;20537;-60
2022/04/19 11:17:24;;;;;;;0.80;0.80;;;15.30;88.20;;;;;;5155207;27;20612;-60
2022/04/19 11:20:15;;;;;;;0.80;0.80;;;15.20;86.70;;;;;;5159369;27;20545;-60
2022/04/19 11:23:01;;;;;;;0.80;0.80;;;14.90;86.30;;;;;;5161125;27;20541;-60
2022/04/19 11:25:40;;;;;;;1.30;0.95;;;15.00;87.20;;;;;;5160655;27;20534;-61
2022/04/19 11:28:37;;;;;;;1.10;0.82;;;15.30;89.80;;;;;;5160624;27;20554;-60
2022/04/19 11:31:18;;;;;;;0.55;0.55;;;15.50;83.70;;;;;;5150018;27;21051;-60
2022/04/19 11:33:58;;;;;;;0.70;0.70;;;15.40;80.20;;;;;;5160945;27;20996;-60
2022/04/19 11:36:38;;;;;;;0.60;0.60;;;15.20;75.80;;;;;;5160863;27;20663;-60
2022/04/19 11:46:44;;;;;;;1.88;1.00;;;15.50;76.90;;;;;;5160346;27;20646;-60
2022/04/19 11:48:11;;;;;;;0.70;0.70;;;16.20;72.80;;;;;;5154543;27;20545;-61
2022/04/19 11:50:50;;;;;;;0.93;0.70;;;16.20;71.70;;;;;;5154031;27;20535;-61
2022/04/19 11:53:28;;;;;;;0.70;0.70;;;16.30;69.30;;;;;;5136050;27;20615;-60
2022/04/19 11:56:07;;;;;;;1.38;0.93;;;16.20;68.90;;;;;;5116184;27;20549;-61
2022/04/19 11:58:49;;;;;;;1.58;0.73;;;16.10;66.30;;;;;;5160634;27;20537;-60
2022/04/19 12:01:28;;;;;;;1.73;0.70;;;15.90;65.70;;;;;;5148767;27;20967;-61
2022/04/19 12:04:13;;;;;;;4.38;0.70;;;15.70;65.80;;;;;;5160092;27;20550;-60
2022/04/19 12:06:52;;;;;;;0.70;0.70;;;15.50;59.40;;;;;;5160980;27;20522;-60
2022/04/19 12:09:33;;;;;;;0.50;0.50;;;15.40;65.00;;;;;;5115037;27;20556;-60
2022/04/19 12:12:13;;;;;;;1.55;1.05;;;15.60;62.20;;;;;;5142424;27;20470;-60
2022/04/19 12:14:53;;;;;;;2.25;0.80;;;15.40;64.00;;;;;;5160804;27;21039;-59
2022/04/19 12:17:31;;;;;;;1.08;0.68;;;15.10;67.70;;;;;;5157450;27;20921;-59
2022/04/19 12:20:10;;;;;;;1.50;0.90;;;14.60;63.60;;;;;;5158783;27;20915;-59
2022/04/19 12:22:51;;;;;;;1.00;0.80;;;14.20;69.10;;;;;;5155757;27;20559;-59
2022/04/19 12:25:29;;;;;;;0.90;0.90;;;13.90;68.50;;;;;;5150097;27;20658;-60
2022/04/19 12:28:11;;;;;;;0.73;0.73;;;13.70;73.90;;;;;;5104432;27;20614;-59
2022/04/19 12:30:50;;;;;;;1.67;1.00;;;13.90;73.70;;;;;;5105702;27;20564;-59
2022/04/19 12:33:28;;;;;;;2.70;1.17;;;14.10;76.50;;;;;;5159344;27;21133;-60
2022/04/19 12:36:13;;;;;;;1.50;1.40;;;13.90;75.90;;;;;;5160191;27;20608;-59
2022/04/19 12:39:03;;;;;;;1.40;1.30;;;13.60;78.50;;;;;;5160240;27;21052;-60
2022/04/19 12:41:44;;;;;;;1.73;1.45;;;13.60;79.90;;;;;;5146857;27;21018;-60
2022/04/19 12:44:22;;;;;;;2.40;1.65;;;13.40;86.90;;;;;;5160316;27;21038;-59
2022/04/19 12:47:04;;;;;;;1.10;1.10;;;13.40;84.60;;;;;;5155299;27;20977;-59
2022/04/19 12:49:45;;;;;;;1.45;1.35;;;13.50;79.70;;;;;;5159549;27;20646;-59
2022/04/19 12:52:31;;;;;;;1.10;1.00;;;13.50;79.00;;;;;;5097106;27;21044;-59
2022/04/19 12:55:10;;;;;;;1.98;1.40;;;13.40;80.30;;;;;;5161588;27;20923;-59
2022/04/19 12:58:56;;;;;;;1.67;1.58;;;13.40;78.70;;;;;;5188502;27;20505;-59
2022/04/19 13:01:36;;;;;;;1.70;1.13;;;13.60;78.00;;;;;;5148068;27;20532;-60
2022/04/19 13:04:14;;;;;;;2.28;1.40;;;14.00;79.40;;;;;;5115370;27;20671;-60
2022/04/19 13:12:45;;;;;;;1.80;1.33;;;14.90;77.30;;;;;;5139136;27;20531;-60
2022/04/19 13:15:23;;;;;;;1.40;1.20;;;15.10;75.40;;;;;;5159471;27;20549;-60
2022/04/19 13:18:01;;;;;;;1.05;1.05;;;14.40;74.90;;;;;;5157932;27;20932;-60
2022/04/19 13:20:39;;;;;;;1.20;1.20;;;14.00;76.20;;;;;;5155426;27;20642;-60
2022/04/19 13:23:17;;;;;;;2.03;1.38;;;13.90;73.80;;;;;;5161060;27;20728;-60
2022/04/19 13:25:56;;;;;;;1.23;1.13;;;14.00;74.00;;;;;;5159380;27;20654;-60
2022/04/19 13:28:37;;;;;;;1.13;1.13;;;14.00;75.50;;;;;;5158620;27;20554;-60
2022/04/19 13:31:15;;;;;;;1.75;1.15;;;14.40;75.40;;;;;;5150410;27;20563;-59
2022/04/19 13:33:53;;;;;;;1.65;1.52;;;14.50;75.40;;;;;;5160234;27;20605;-60
2022/04/19 13:36:31;;;;;;;1.65;1.55;;;14.00;74.90;;;;;;5161160;27;20541;-59
2022/04/19 13:39:10;;;;;;;1.98;1.83;;;13.60;79.90;;;;;;5159853;27;20616;-59
2022/04/19 13:41:48;;;;;;;1.20;0.98;;;13.90;79.00;;;;;;5146344;27;21067;-61
2022/04/19 13:44:26;;;;;;;1.95;1.75;;;14.10;79.20;;;;;;5109106;27;21003;-59
2022/04/19 13:47:06;;;;;;;3.28;1.58;;;13.90;77.80;;;;;;5155925;27;20565;-60
2022/04/19 13:49:44;;;;;;;1.23;1.23;;;13.40;78.10;;;;;;5141243;27;21061;-60
2022/04/19 13:52:22;;;;;;;2.30;1.40;;;13.10;77.80;;;;;;5135231;27;20602;-60
2022/04/19 13:55:01;;;;;;;3.25;1.40;;;13.00;78.80;;;;;;5139558;27;20573;-60
2022/04/19 13:57:39;;;;;;;1.63;1.38;;;13.20;76.10;;;;;;5137470;27;20539;-59
2022/04/19 14:00:17;;;;;;;2.00;1.80;;;12.50;75.70;;;;;;5112012;27;20557;-60
2022/04/19 14:02:56;;;;;;;1.92;1.50;;;12.10;75.80;;;;;;5135945;27;21008;-60
2022/04/19 14:05:34;;;;;;;1.17;1.17;;;12.30;78.10;;;;;;5156195;27;20516;-59
2022/04/19 14:08:12;;;;;;;1.38;1.27;;;12.70;73.20;;;;;;5098576;27;20630;-60
2022/04/19 14:10:50;;;;;;;1.73;1.35;;;13.20;72.60;;;;;;5153256;27;20542;-59
2022/04/19 14:13:29;;;;;;;1.63;1.52;;;13.40;71.30;;;;;;5145111;27;20562;-57
2022/04/19 14:16:10;;;;;;;1.52;1.42;;;13.50;70.60;;;;;;5158105;27;20598;-59
2022/04/19 14:18:48;;;;;;;1.75;1.45;;;13.40;72.40;;;;;;5158558;27;20604;-59
2022/04/19 14:21:26;;;;;;;1.85;1.55;;;13.10;64.50;;;;;;5132446;27;20699;-60
2022/04/19 14:24:05;;;;;;;1.50;1.40;;;12.80;63.80;;;;;;5132070;27;20927;-60
2022/04/19 14:26:44;;;;;;;2.67;1.58;;;12.80;65.80;;;;;;5160103;27;20612;-60
2022/04/19 14:35:14;;;;;;;2.55;1.48;;;12.60;63.10;;;;;;5158478;27;21601;-59
2022/04/19 14:37:52;;;;;;;1.52;1.42;;;13.00;63.60;;;;;;5145746;27;21247;-60
2022/04/19 14:40:31;;;;;;;3.35;1.63;;;13.50;65.80;;;;;;5145076;27;20653;-60
2022/04/19 14:43:09;;;;;;;2.08;1.30;;;14.00;66.30;;;;;;5158865;27;20601;-60
2022/04/19 14:45:47;;;;;;;1.60;1.20;;;14.20;62.80;;;;;;5156779;27;20624;-59
2022/04/19 14:48:25;;;;;;;1.30;1.20;;;13.70;58.80;;;;;;5143958;27;20598;-59
2022/04/19 14:54:01;;;;;;;1.95;1.10;;;12.70;58.30;;;;;;5160102;27;20534;-60
2022/04/19 14:56:39;;;;;;;1.27;1.10;;;12.90;57.80;;;;;;5160677;27;20549;-59
2022/04/19 14:59:18;;;;;;;1.40;1.20;;;13.30;58.80;;;;;;5137698;27;20981;-60